Terminal Aerodrome Forecast
Issued by NWS Cleveland, OH

Home | Current Version | Previous Version | Graphics & Text | Print | Product List | Glossary On
Versions: 1 2 3 4 5 6 7 8 9 10 11 12 13 14 15 16 17 18
000
FTUS41 KCLE 192334
TAFERI
TAF
KERI 192334Z 2000/2024 20018G28KT P6SM SCT250
     FM201200 22015G25KT P6SM BKN250
     FM201500 22012G20KT P6SM BKN020
     FM202200 22008KT P6SM OVC015=

USA.gov is the U.S. government's official web portal to all federal, state and local government web resources and services.